Jacksonville, FL (32227)

10:31 PM EDT on September 01, 2015 (GMT -0400)
Atlantic Beach/Mayport | | Change Station
CLOSE
Current Station
Personal Weather Station
Location: Atlantic Beach, FL
Elevation: 13 ft
Nearby Weather Stations

Elev 13 ft 30.37 °N, 81.41 °W | Updated 7 seconds ago

Mostly Cloudy
Mostly Cloudy
79.3 °F
Feels Like 84 °F
N
0.0
Wind Variable Wind from SSE
Gusts 0.0 mph

Today
High -- | Low -- °F
--% Chance of Precip.
Yesterday
High -- | Low -- °F
Precip. -- in
7:02 AM 7:48 PM
Waning Gibbous, 84% visible
Pressure 30.07 in
Visibility 10.0 miles
Clouds Few 3500 ft
Few 8000 ft
Mostly Cloudy 15000 ft
Mostly Cloudy 25000 ft
Heat Index 84 °F
Dew Point 78 °F
Humidity 95%
Rainfall 0.00 in
Snow Depth Not available.
UV 0 out of 12
Pollen 5.40 out of 12
Air Quality Not available.
Flu Activity Not available.
METAR KNRB 020152Z 00000KT 10SM FEW035 FEW080 BKN150 BKN250 27/25 A3007 RMK AO2 SLP183 OCNL LTGIC DSNT NE CB DSNT NE T02720250 $
Pressure 30.07 in
Visibility 10.0 miles
Clouds Few 3500 ft
Few 8000 ft
Mostly Cloudy 15000 ft
Mostly Cloudy 25000 ft
Heat Index 84 °F
Dew Point 78 °F
Humidity 95%
Rainfall 0.00 in
Snow Depth Not available.
UV 0 out of 12
Pollen 5.40 out of 12
Air Quality Not available.
Flu Activity Not available.
METAR KNRB 020152Z 00000KT 10SM FEW035 FEW080 BKN150 BKN250 27/25 A3007 RMK AO2 SLP183 OCNL LTGIC DSNT NE CB DSNT NE T02720250 $

10-Day Weather Forecast

×

Almanac

Astronomy

Sep. 01, 2015 Rise Set
Actual Time
Civil Twilight
Nautical Twilight
Astronomical Twilight
Moon
Length of Visible Light
Length of Day
Tomorrow will be .
, % of the Moon is Illuminated

Today's Extremes

State Highs State Lows

Community

WunderPhotos

Upload Photos

1,851,681 photos uploaded!

WunderBlogs® & News

Nearby

Air Quality

  Air Quality AQ Index Pollutant
Not available.

Snow Depth

Station Depth Elevation

Earthquake Activity

City Distance Mag. Time & Date
Minimum magnitude displayed is 2.5.

Coastal Water Temperatures

Place Temperature

Stations

Nearby Weather Stations

Station Location Temp. Windchill Dew Point Humidity Wind Precip. Elev Updated Type